Broadalbin, NY (12025)

10:30 AM EDT on October 25, 2014 (GMT -0400)
Sacandaga Lake | Change Station
CLOSE
Current Station
Personal Weather Station
Location: Broadalbin, NY
Elevation: 770 ft
Nearby Weather Stations

Elev 770 ft 43.12 °N, 74.15 °W | Updated 4 seconds ago

Mostly Cloudy
Mostly Cloudy
48.8 °F
Feels Like 43 °F
N
14.0
Wind Variable Wind from WSW
Gusts 15.0 mph

Today
High -- | Low -- °F
--% Chance of Precip.
Yesterday
High -- | Low -- °F
Precip. -- in
7:22 AM 5:58 PM
Waxing Crescent, 3% visible
Pressure 29.81 in
Visibility 10.0 miles
Clouds Scattered Clouds 2100 ft
Windchill 43 °F
Dew Point 49 °F
Humidity 100%
Rainfall 0.00 in
Snow Depth Not available.
UV 1 out of 12
Pollen .70 out of 12
PM2.5 Good
Flu Activity Sporadic
METAR KSCH 251346Z 00000KT 10SM SCT021 11/06 A2981

More Conditions Fewer Conditions

Pressure 29.81 in
Visibility 10.0 miles
Clouds Scattered Clouds 2100 ft
Windchill 43 °F
Dew Point 49 °F
Humidity 100%
Rainfall 0.00 in
Snow Depth Not available.
UV 1 out of 12
Pollen .70 out of 12
PM2.5 Good
Flu Activity Sporadic
METAR KSCH 251346Z 00000KT 10SM SCT021 11/06 A2981

More Conditions Fewer Conditions

10-Day Weather Forecast

Almanac

Astronomy

Oct. 25, 2014 Rise Set
Actual Time 7:22 AM EDT 5:58 PM EDT
Civil Twilight 6:53 AM EDT 6:27 PM EDT
Nautical Twilight 6:20 AM EDT 7:00 PM EDT
Astronomical Twilight 5:47 AM EDT 7:33 PM EDT
Moon 9:00 AM EDT 7:17 PM EDT
Length of Visible Light 11h 34m
Length of Day
10h 35m
Tomorrow will be 2m 43s shorter.
Waxing Crescent, 3% of the Moon is Illuminated
Today
Waxing Crescent
Oct 30
First Quarter
Nov 6
Full
Nov 14
Last Quarter
Nov 22
New

Today's Extremes

State Highs State Lows

Community

WunderPhotos

Upload Photos

1,764,852 photos uploaded!

Nearby

Air Quality

  Air Quality AQ Index Pollutant
Yesterday Good
OZONE
Yesterday Good
PM2.5
Current Good
PM2.5
Saturday Good
PM2.5
Sunday Good
PM2.5
Monday Good
PM2.5

Snow Depth

Station Depth Elevation
No new snow has been reported.

Earthquake Activity

City Distance Mag. Time & Date
No recent earthquake activity has been reported nearby.
Minimum magnitude displayed is 2.5.

Coastal Water Temperatures

Place Temperature
No Stations Reporting

Nearby Weather Stations